Ruth, Michigan
Current Conditions -  °F | °C
As of 3:39 AM on Friday 31 Oct 2014 (Local Time) from KBAX Reporting Station
Overcast Overcast  
Wind Chill: 38°   Ceiling: 7000
Heat Index: 42°   Visibility: 10mi
Dew Point: 40°   Wind: 6mph
Humidity: 91%   Direction: 220°SW
Pressure: 29.92"   Gusts: NA
Location:  43.72°N, 82.74°W
Report Text: KBAX 310739Z AUTO 22005KT 10SM SCT036 BKN070 OVC080 06/04 A2992 RMK AO2 T00550042
Loading
Personal Weather Stations






























Interactive Weather Map
Tropical Storm Tracking
New forecast layout! Learn more

10-Day Weather Forecast

Advertisements
Track Severe Weather on mobile